createdAt,value
2023-04-20T00:04:48.595Z,99083.66
2023-04-20T00:09:53.733Z,99077.22
2023-04-20T00:15:01.454Z,99083.81
2023-04-20T00:20:10.567Z,99074.63
2023-04-20T00:25:16.017Z,99076.69
2023-04-20T00:30:24.298Z,99071.66
2023-04-20T00:35:32.547Z,99072.56
2023-04-20T00:40:38.183Z,99078.16
2023-04-20T00:45:43.871Z,99078.44
2023-04-20T00:50:54.011Z,99076.06
2023-04-20T00:55:59.810Z,99071.22
2023-04-20T01:01:05.863Z,99060.94
2023-04-20T01:06:16.579Z,99061.44
2023-04-20T01:11:22.154Z,99069.31
2023-04-20T01:16:28.421Z,99061.38
2023-04-20T01:21:36.490Z,99056.47
2023-04-20T01:26:47.694Z,99057.81
2023-04-20T01:31:56.156Z,99062.06
2023-04-20T01:37:08.368Z,99063.88
2023-04-20T01:42:15.994Z,99055.75
2023-04-20T01:47:22.929Z,99056.56
2023-04-20T01:52:29.196Z,99053.91
2023-04-20T01:57:41.524Z,99051.84
2023-04-20T02:02:47.119Z,99049.50
2023-04-20T02:07:54.057Z,99045.19
2023-04-20T02:13:02.090Z,99056.94
2023-04-20T02:18:11.433Z,99044.66
2023-04-20T02:23:17.027Z,99048.84
2023-04-20T02:28:27.718Z,99050.03
2023-04-20T02:33:33.786Z,99052.13
2023-04-20T02:38:38.925Z,99066.69
2023-04-20T02:43:48.669Z,99049.75
2023-04-20T02:48:55.674Z,99042.59
2023-04-20T02:54:02.917Z,99040.09
2023-04-20T02:59:11.795Z,99039.16
2023-04-20T03:04:50.122Z,99051.25
2023-04-20T03:09:58.847Z,99054.56
2023-04-20T03:15:25.605Z,99057.47
2023-04-20T03:20:50.965Z,99056.78
2023-04-20T03:25:59.773Z,99068.94
2023-04-20T03:31:30.854Z,99072.72
2023-04-20T03:36:39.243Z,99082.53
2023-04-20T03:41:48.194Z,99074.75
2023-04-20T03:46:56.922Z,99072.97
2023-04-20T03:52:02.471Z,99068.66
2023-04-20T03:57:11.465Z,99070.41
2023-04-20T04:02:23.896Z,99073.78
2023-04-20T04:07:35.407Z,99076.41
2023-04-20T04:12:41.424Z,99065.84
2023-04-20T04:17:51.339Z,99077.09
2023-04-20T04:22:57.644Z,99080.25
2023-04-20T04:28:12.069Z,99089.41
2023-04-20T04:33:28.499Z,99098.94
2023-04-20T04:38:38.161Z,99100.84
2023-04-20T04:43:45.917Z,99092.09
2023-04-20T04:49:26.635Z,99095.94
2023-04-20T04:54:31.943Z,99108.81
2023-04-20T04:59:37.706Z,99100.69
2023-04-20T05:04:47.183Z,99095.13
2023-04-20T05:09:52.898Z,99100.38
2023-04-20T05:14:59.840Z,99102.75
2023-04-20T05:20:23.292Z,99106.50
2023-04-20T05:25:31.464Z,99123.31
2023-04-20T05:30:36.730Z,99128.06
2023-04-20T05:35:46.333Z,99124.06
2023-04-20T05:40:52.779Z,99128.31
2023-04-20T05:46:01.741Z,99129.41
2023-04-20T05:51:12.803Z,99126.94
2023-04-20T05:56:19.144Z,99124.38
2023-04-20T06:01:27.788Z,99113.75
2023-04-20T06:06:36.309Z,99112.53
2023-04-20T06:11:42.699Z,99110.28
2023-04-20T06:16:49.847Z,99117.06
2023-04-20T06:22:01.254Z,99112.78
2023-04-20T06:27:07.536Z,99117.66
2023-04-20T06:32:13.270Z,99118.16
2023-04-20T06:37:21.293Z,99124.19
2023-04-20T06:42:29.195Z,99122.16
2023-04-20T06:47:35.850Z,99127.91
2023-04-20T06:52:45.280Z,99130.38
2023-04-20T06:57:52.794Z,99128.19
2023-04-20T07:02:58.310Z,99141.59
2023-04-20T07:08:19.026Z,99132.56
2023-04-20T07:13:25.946Z,99133.34
2023-04-20T07:18:33.309Z,99136.97
2023-04-20T07:23:44.838Z,99124.50
2023-04-20T07:28:56.477Z,99130.56
2023-04-20T07:34:02.776Z,99116.00
2023-04-20T07:39:16.448Z,99126.56
2023-04-20T07:44:22.268Z,99140.16
2023-04-20T07:49:34.668Z,99142.53
2023-04-20T08:00:04.126Z,99148.56
2023-04-20T08:05:20.705Z,99146.47
2023-04-20T08:10:31.256Z,99140.25
2023-04-20T08:15:38.712Z,99133.44
2023-04-20T08:20:46.259Z,99136.66
2023-04-20T08:26:00.163Z,99137.38
2023-04-20T08:31:14.124Z,99141.94
2023-04-20T08:36:24.067Z,99136.75
2023-04-20T08:41:32.494Z,99128.81
2023-04-20T08:46:39.879Z,99151.00
2023-04-20T08:51:46.453Z,99146.22
2023-04-20T09:03:11.413Z,99142.78
2023-04-20T09:08:48.463Z,99140.63
2023-04-20T09:14:07.742Z,99138.84
2023-04-20T09:19:14.036Z,99138.28
2023-04-20T09:24:20.156Z,99141.56
2023-04-20T09:29:33.571Z,99143.09
2023-04-20T09:34:46.558Z,99146.44
2023-04-20T09:39:52.064Z,99134.59
2023-04-20T09:45:04.370Z,99131.72
2023-04-20T09:50:24.841Z,99131.50
2023-04-20T09:55:36.475Z,99126.25
2023-04-20T10:00:45.433Z,99123.59
2023-04-20T10:05:55.938Z,99121.41
2023-04-20T10:11:01.289Z,99122.78
2023-04-20T10:16:22.784Z,99114.59
2023-04-20T10:21:28.065Z,99110.13
2023-04-20T10:26:41.266Z,99112.75
2023-04-20T10:31:52.344Z,99099.53
2023-04-20T10:36:57.593Z,99102.44
2023-04-20T10:42:03.347Z,99108.25
2023-04-20T10:47:12.651Z,99103.50
2023-04-20T10:52:18.476Z,99105.88
2023-04-20T10:57:24.156Z,99090.03
2023-04-20T11:02:32.773Z,99090.00
2023-04-20T11:07:38.980Z,99090.28
2023-04-20T11:12:46.386Z,99090.81
2023-04-20T11:18:01.376Z,99083.94
2023-04-20T11:23:06.961Z,99082.28
2023-04-20T11:28:14.860Z,99065.38
2023-04-20T11:33:33.373Z,99070.31
2023-04-20T11:38:40.847Z,99069.72
2023-04-20T11:43:49.710Z,99069.50
2023-04-20T11:49:00.145Z,99059.25
2023-04-20T11:54:05.597Z,99062.00
2023-04-20T11:59:11.388Z,99070.28
2023-04-20T12:04:20.064Z,99056.25
2023-04-20T12:09:25.334Z,99045.16
2023-04-20T12:14:33.656Z,99052.97
2023-04-20T12:19:42.630Z,99043.66
2023-04-20T12:24:51.335Z,99043.31
2023-04-20T12:29:58.602Z,99033.59
2023-04-20T12:35:08.652Z,99040.13
2023-04-20T12:40:16.821Z,99031.53
2023-04-20T12:45:28.005Z,99022.59
2023-04-20T12:50:41.682Z,99017.63
2023-04-20T12:55:55.009Z,99007.53
2023-04-20T13:01:09.516Z,99005.34
2023-04-20T13:06:19.263Z,98996.59
2023-04-20T13:11:27.282Z,99002.00
2023-04-20T13:16:33.264Z,99003.75
2023-04-20T13:21:45.551Z,98996.53
2023-04-20T13:26:50.726Z,98992.63
2023-04-20T13:31:57.357Z,98982.16
2023-04-20T13:37:05.795Z,98976.19
2023-04-20T13:42:10.873Z,98967.47
2023-04-20T13:47:18.814Z,98963.88
2023-04-20T13:52:26.646Z,98959.75
2023-04-20T13:57:34.547Z,98959.75
2023-04-20T14:02:41.724Z,98970.88
2023-04-20T14:07:50.179Z,98963.94
2023-04-20T14:12:55.455Z,98955.72
2023-04-20T14:18:00.841Z,98942.09
2023-04-20T14:23:09.896Z,98936.16
2023-04-20T14:28:15.146Z,98932.56
2023-04-20T14:33:20.701Z,98930.78
2023-04-20T14:38:28.803Z,98929.13
2023-04-20T14:43:35.617Z,98924.28
2023-04-20T14:48:42.691Z,98907.00
2023-04-20T14:53:50.692Z,98897.53
2023-04-20T14:58:57.418Z,98899.59
2023-04-20T15:04:05.513Z,98900.09
2023-04-20T15:09:16.212Z,98893.50
2023-04-20T15:14:21.691Z,98891.00
2023-04-20T15:19:29.838Z,98895.41
2023-04-20T15:24:40.302Z,98885.03
2023-04-20T15:29:45.345Z,98890.25
2023-04-20T15:34:54.524Z,98868.84
2023-04-20T15:40:03.168Z,98867.41
2023-04-20T15:45:09.801Z,98869.78
2023-04-20T15:50:16.588Z,98865.78
2023-04-20T15:55:28.133Z,98867.44
2023-04-20T16:00:34.899Z,98860.50
2023-04-20T16:05:40.068Z,98857.38
2023-04-20T16:10:47.990Z,98865.22
2023-04-20T16:16:04.552Z,98861.13
2023-04-20T16:21:09.933Z,98872.28
2023-04-20T16:26:19.316Z,98855.47
2023-04-20T16:31:29.985Z,98867.25
2023-04-20T16:36:35.106Z,98864.94
2023-04-20T16:41:42.901Z,98867.44
2023-04-20T16:46:53.131Z,98868.03
2023-04-20T16:51:58.506Z,98871.03
2023-04-20T16:57:11.330Z,98874.66
2023-04-20T17:02:18.448Z,98880.44
2023-04-20T17:07:24.041Z,98880.72
2023-04-20T17:12:32.518Z,98885.09
2023-04-20T17:17:41.647Z,98881.75
2023-04-20T17:22:47.512Z,98877.69
2023-04-20T17:27:57.087Z,98887.41
2023-04-20T17:33:02.435Z,98887.84
2023-04-20T17:38:07.586Z,98888.13
2023-04-20T17:43:15.432Z,98892.63
2023-04-20T17:48:21.134Z,98879.41
2023-04-20T17:53:26.826Z,98882.66
2023-04-20T17:58:34.707Z,98886.75
2023-04-20T18:03:42.695Z,98888.06
2023-04-20T18:08:48.139Z,98887.88
2023-04-20T18:13:55.822Z,98895.69
2023-04-20T18:19:03.667Z,98899.56
2023-04-20T18:24:11.275Z,98894.47
2023-04-20T18:29:20.695Z,98912.16
2023-04-20T18:34:30.121Z,98917.13
2023-04-20T18:39:35.212Z,98916.00
2023-04-20T18:44:43.118Z,98913.59
2023-04-20T18:49:48.576Z,98908.88
2023-04-20T18:54:55.639Z,98924.47
2023-04-20T19:00:07.860Z,98925.06
2023-04-20T19:05:13.891Z,98924.31
2023-04-20T19:10:20.843Z,98916.25
2023-04-20T19:15:32.652Z,98921.50
2023-04-20T19:20:38.784Z,98920.41
2023-04-20T19:25:44.098Z,98927.31
2023-04-20T19:30:51.935Z,98915.88
2023-04-20T19:35:59.505Z,98920.41
2023-04-20T19:41:07.510Z,98929.66
2023-04-20T19:46:17.108Z,98923.19
2023-04-20T19:51:26.781Z,98928.31
2023-04-20T19:56:33.867Z,98935.63
2023-04-20T20:01:45.082Z,98930.47
2023-04-20T20:06:51.104Z,98938.78
2023-04-20T20:11:58.827Z,98933.06
2023-04-20T20:17:06.857Z,98941.53
2023-04-20T20:22:12.233Z,98935.63
2023-04-20T20:27:17.381Z,98931.47
2023-04-20T20:32:25.213Z,98930.09
2023-04-20T20:37:35.016Z,98931.09
2023-04-20T20:42:42.586Z,98937.97
2023-04-20T20:47:53.313Z,98935.53
2023-04-20T20:52:58.370Z,98941.75
2023-04-20T20:58:03.494Z,98946.19
2023-04-20T21:03:13.523Z,98947.66
2023-04-20T21:08:18.721Z,98949.81
2023-04-20T21:13:24.145Z,98946.66
2023-04-20T21:18:33.682Z,98947.66
2023-04-20T21:23:38.887Z,98950.63
2023-04-20T21:28:43.898Z,98948.03
2023-04-20T21:33:51.608Z,98953.75
2023-04-20T21:38:57.101Z,98956.09
2023-04-20T21:44:02.759Z,98955.50
2023-04-20T21:49:10.826Z,98954.13
2023-04-20T21:54:15.845Z,98955.16
2023-04-20T21:59:20.971Z,98956.84
2023-04-20T22:04:29.950Z,98955.66
2023-04-20T22:09:35.110Z,98957.31
2023-04-20T22:14:40.406Z,98950.94
2023-04-20T22:19:48.639Z,98937.41
2023-04-20T22:24:53.852Z,98950.41
2023-04-20T22:29:58.862Z,98941.66
2023-04-20T22:35:07.402Z,98945.81
2023-04-20T22:40:14.345Z,98954.25
2023-04-20T22:45:19.913Z,98962.16
2023-04-20T22:50:27.923Z,98951.66
2023-04-20T22:55:35.402Z,98961.81
2023-04-20T23:00:41.129Z,98952.75
2023-04-20T23:05:49.632Z,98949.88
2023-04-20T23:10:56.396Z,98951.28
2023-04-20T23:16:02.217Z,98954.06
2023-04-20T23:21:09.986Z,98948.50
2023-04-20T23:26:15.043Z,98957.63
2023-04-20T23:31:21.227Z,98965.91
2023-04-20T23:36:29.621Z,98957.88
2023-04-20T23:41:34.739Z,98958.28
2023-04-20T23:46:39.873Z,98959.88
2023-04-20T23:51:47.537Z,98951.88
2023-04-20T23:56:55.416Z,98953.63
